Time;durP1;ratioP1;P1;durP2;ratioP2;P2;SDS_P1;SDS_P2;PMS_P1;PMS_P2;Temp;Humidity;BMP_temperature;BMP_pressure;BME280_temperature;BME280_humidity;BME280_pressure;Samples;Min_cycle;Max_cycle;Signal;HPM_P1;HPM_P2
2021/01/30 00:00:24;;;;;;;;;;;;;;;19.14;64.34;100689.75;4934106;29;1317;-75
2021/01/30 00:02:50;;;;;;;;;;;;;;;19.13;64.33;100684.56;4951512;28;1173;-74
2021/01/30 00:05:16;;;;;;;;;;;;;;;19.18;64.55;100685.97;4951303;28;1343;-68
2021/01/30 00:07:43;;;;;;;;;;;;;;;19.17;64.29;100689.59;4933740;29;901;-71
2021/01/30 00:10:09;;;;;;;;;;;;;;;19.15;64.38;100682.69;4933815;29;1904;-72
2021/01/30 00:12:56;;;;;;;;;;;;;;;19.12;64.26;100682.88;4951261;29;1086;-71
2021/01/30 00:15:23;;;;;;;;;;;;;;;19.13;64.26;100676.63;4933863;29;1246;-72
2021/01/30 00:17:51;;;;;;;;;;;;;;;19.11;64.33;100668.81;4933869;29;1187;-69
2021/01/30 00:20:24;;;;;;;;;;;;;;;19.11;64.20;100666.19;4933721;29;1312;-71
2021/01/30 00:22:51;;;;;;;;;;;;;;;19.10;64.30;100657.41;4933901;29;1045;-70
2021/01/30 00:25:19;;;;;;;;;;;;;;;19.09;64.18;100645.13;4950765;28;1202;-71
2021/01/30 00:27:45;;;;;;;;;;;;;;;19.10;64.22;100630.16;4933334;29;1243;-70
2021/01/30 00:30:13;;;;;;;;;;;;;;;19.09;64.02;100631.09;4945113;29;2010;-70
2021/01/30 00:32:40;;;;;;;;;;;;;;;19.09;64.04;100620.53;4950848;29;1199;-71
2021/01/30 00:35:07;;;;;;;;;;;;;;;19.08;64.21;100624.97;4950607;28;1226;-71
2021/01/30 00:37:33;;;;;;;;;;;;;;;19.08;64.06;100629.41;4950756;29;1124;-71
2021/01/30 00:40:00;;;;;;;;;;;;;;;19.07;63.95;100630.34;4932977;29;1557;-70
2021/01/30 00:42:27;;;;;;;;;;;;;;;19.07;63.86;100625.91;4950396;28;1141;-70
2021/01/30 00:44:54;;;;;;;;;;;;;;;19.07;63.93;100640.91;4989420;28;1233;-71
2021/01/30 00:47:21;;;;;;;;;;;;;;;19.06;63.81;100641.81;4955970;28;1185;-72
2021/01/30 00:49:48;;;;;;;;;;;;;;;19.06;63.71;100652.38;4971960;28;1918;-71
2021/01/30 00:52:18;;;;;;;;;;;;;;;19.05;63.94;100646.28;4972087;28;1045;-70
2021/01/30 00:54:44;;;;;;;;;;;;;;;19.05;63.82;100648.94;4971697;28;1221;-70
2021/01/30 00:57:11;;;;;;;;;;;;;;;19.05;63.78;100654.19;4988796;28;925;-70
2021/01/30 00:59:37;;;;;;;;;;;;;;;19.04;63.83;100641.06;4971152;28;1224;-69
2021/01/30 01:02:03;;;;;;;;;;;;;;;19.04;63.83;100638.44;4988890;28;924;-70
2021/01/30 01:04:30;;;;;;;;;;;;;;;19.03;63.82;100628.81;4970884;28;1389;-69
2021/01/30 01:06:56;;;;;;;;;;;;;;;19.02;63.76;100617.44;4988476;28;1507;-70
2021/01/30 01:09:22;;;;;;;;;;;;;;;19.02;63.67;100622.72;4970943;28;1985;-70
2021/01/30 01:11:50;;;;;;;;;;;;;;;19.02;63.77;100614.78;4986893;28;1331;-70
2021/01/30 01:14:18;;;;;;;;;;;;;;;19.09;63.47;100608.19;4971190;28;842;-67
2021/01/30 01:16:44;;;;;;;;;;;;;;;19.06;63.43;100595.16;4970403;28;1369;-67
2021/01/30 01:19:11;;;;;;;;;;;;;;;19.08;63.18;100585.38;4985006;28;1143;-67
2021/01/30 01:21:37;;;;;;;;;;;;;;;19.09;63.08;100576.50;4972238;28;1404;-67
2021/01/30 01:24:04;;;;;;;;;;;;;;;19.08;62.98;100577.47;4972377;28;1377;-68
2021/01/30 01:26:30;;;;;;;;;;;;;;;19.05;63.12;100556.53;4989839;28;1186;-66
2021/01/30 01:28:57;;;;;;;;;;;;;;;19.06;63.09;100566.13;4990128;28;1225;-67
2021/01/30 01:31:24;;;;;;;;;;;;;;;19.10;62.98;100553.59;4989653;28;1970;-66
2021/01/30 01:33:50;;;;;;;;;;;;;;;19.12;62.97;100556.16;4990109;28;1312;-67
2021/01/30 01:36:17;;;;;;;;;;;;;;;19.15;62.99;100561.25;4989678;28;1222;-67
2021/01/30 01:38:43;;;;;;;;;;;;;;;19.16;63.00;100563.78;4956468;28;1285;-66
2021/01/30 01:41:11;;;;;;;;;;;;;;;19.18;62.94;100559.22;4972415;28;1257;-66
2021/01/30 01:43:37;;;;;;;;;;;;;;;19.19;62.84;100549.53;4972050;28;1195;-66
2021/01/30 01:46:15;;;;;;;;;;;;;;;19.14;63.21;100549.81;4972001;28;1237;-66
2021/01/30 01:48:53;;;;;;;;;;;;;;;19.13;63.19;100545.47;4989974;28;1124;-66
2021/01/30 01:51:28;;;;;;;;;;;;;;;19.12;63.26;100542.94;4989532;28;1978;-66
2021/01/30 01:53:56;;;;;;;;;;;;;;;19.11;63.22;100536.81;4989383;28;1145;-66
2021/01/30 01:56:24;;;;;;;;;;;;;;;19.15;63.28;100542.75;4971753;28;1245;-66
2021/01/30 01:58:53;;;;;;;;;;;;;;;19.06;63.57;100550.28;4989483;28;1146;-66
2021/01/30 02:01:20;;;;;;;;;;;;;;;19.08;63.42;100535.22;4989495;28;1233;-66
2021/01/30 02:03:50;;;;;;;;;;;;;;;19.10;63.41;100535.97;4989796;28;1234;-66
2021/01/30 02:06:16;;;;;;;;;;;;;;;19.08;63.46;100540.50;4989378;28;1315;-66
2021/01/30 02:08:42;;;;;;;;;;;;;;;19.09;63.41;100522.84;4972039;28;1174;-66
2021/01/30 02:11:09;;;;;;;;;;;;;;;19.09;63.55;100525.47;4989414;28;1942;-66
2021/01/30 02:13:52;;;;;;;;;;;;;;;19.09;63.49;100518.41;4989754;28;1138;-66
2021/01/30 02:16:38;;;;;;;;;;;;;;;19.08;63.52;100522.00;4989352;28;1265;-66
2021/01/30 02:19:23;;;;;;;;;;;;;;;19.07;63.42;100515.03;4989664;28;1269;-66
2021/01/30 02:22:08;;;;;;;;;;;;;;;19.04;63.71;100507.28;4971856;28;1304;-66
2021/01/30 02:24:53;;;;;;;;;;;;;;;19.03;63.68;100497.66;4989555;28;1237;-66
2021/01/30 02:27:22;;;;;;;;;;;;;;;19.00;63.94;100487.31;4989387;28;1053;-67
2021/01/30 02:30:07;;;;;;;;;;;;;;;18.99;63.94;100475.06;4989201;28;1903;-67
2021/01/30 02:32:33;;;;;;;;;;;;;;;18.99;63.85;100477.72;4971625;28;1377;-67
2021/01/30 02:35:00;;;;;;;;;;;;;;;18.97;63.87;100482.22;4989166;28;1225;-67
2021/01/30 02:37:31;;;;;;;;;;;;;;;19.01;63.77;100477.59;4989365;28;1143;-68
2021/01/30 02:40:01;;;;;;;;;;;;;;;18.97;63.95;100469.00;4989180;28;1249;-67
2021/01/30 02:42:30;;;;;;;;;;;;;;;18.97;63.79;100466.38;4989403;28;905;-67
2021/01/30 02:44:59;;;;;;;;;;;;;;;18.97;63.83;100453.19;4989057;28;1340;-66
2021/01/30 02:47:28;;;;;;;;;;;;;;;18.98;63.73;100441.69;4989165;28;1000;-67
2021/01/30 02:49:59;;;;;;;;;;;;;;;18.97;63.97;100426.78;4989026;28;1910;-66
2021/01/30 02:52:26;;;;;;;;;;;;;;;18.98;63.96;100415.28;4989109;28;1099;-67
2021/01/30 02:54:55;;;;;;;;;;;;;;;18.99;63.66;100406.44;4971613;28;1379;-66
2021/01/30 02:57:23;;;;;;;;;;;;;;;18.98;63.82;100402.09;4989301;28;1129;-66
2021/01/30 02:59:52;;;;;;;;;;;;;;;18.91;63.98;100408.69;4992044;28;1246;-67
2021/01/30 03:02:19;;;;;;;;;;;;;;;18.94;64.07;100397.94;4992965;28;1218;-66
2021/01/30 03:04:46;;;;;;;;;;;;;;;18.94;64.11;100397.94;4992985;28;1343;-67
2021/01/30 03:07:33;;;;;;;;;;;;;;;18.93;64.03;100380.44;4991235;28;1270;-66
2021/01/30 03:10:22;;;;;;;;;;;;;;;18.95;64.08;100377.69;4992641;28;1914;-66
2021/01/30 03:12:55;;;;;;;;;;;;;;;18.95;64.01;100377.69;4984712;28;1177;-66
2021/01/30 03:15:27;;;;;;;;;;;;;;;18.90;64.22;100363.94;4992562;28;1321;-66
2021/01/30 03:17:54;;;;;;;;;;;;;;;18.91;64.09;100368.25;4992496;28;1043;-66
2021/01/30 03:20:21;;;;;;;;;;;;;;;18.92;64.04;100367.31;4992241;28;1253;-66
2021/01/30 03:22:48;;;;;;;;;;;;;;;18.92;64.08;100357.59;4992450;28;1218;-67
2021/01/30 03:25:18;;;;;;;;;;;;;;;18.92;64.04;100359.41;4992113;28;1237;-66
2021/01/30 03:27:44;;;;;;;;;;;;;;;18.88;64.24;100348.19;4974687;28;932;-67
2021/01/30 03:30:11;;;;;;;;;;;;;;;18.90;64.12;100353.38;4991834;28;1977;-67
2021/01/30 03:32:37;;;;;;;;;;;;;;;18.88;64.28;100350.81;4992284;28;1251;-66
2021/01/30 03:35:05;;;;;;;;;;;;;;;18.88;64.15;100340.25;4991940;28;1340;-66
2021/01/30 03:37:31;;;;;;;;;;;;;;;18.88;64.17;100340.25;4991976;28;1069;-67
2021/01/30 03:39:58;;;;;;;;;;;;;;;18.87;64.30;100341.22;4991942;28;1261;-66
2021/01/30 03:42:25;;;;;;;;;;;;;;;18.88;64.28;100334.97;4991795;28;1016;-67
2021/01/30 03:44:51;;;;;;;;;;;;;;;18.88;64.17;100334.97;4991877;28;1308;-66
2021/01/30 03:47:17;;;;;;;;;;;;;;;18.90;64.23;100332.25;4992181;28;1168;-66
2021/01/30 03:49:43;;;;;;;;;;;;;;;18.85;64.44;100332.53;4990524;28;1906;-66
2021/01/30 03:52:10;;;;;;;;;;;;;;;18.86;64.43;100320.19;4991965;28;1039;-67
2021/01/30 03:54:36;;;;;;;;;;;;;;;18.89;64.15;100312.09;4991807;28;1351;-67
2021/01/30 03:57:02;;;;;;;;;;;;;;;18.86;64.37;100293.81;4991911;28;905;-67
2021/01/30 03:59:29;;;;;;;;;;;;;;;18.87;64.29;100277.03;4991742;28;1093;-67
2021/01/30 04:01:55;;;;;;;;;;;;;;;18.85;64.30;100263.94;4991563;28;1179;-67
2021/01/30 04:04:21;;;;;;;;;;;;;;;18.82;64.50;100243.00;4991631;28;811;-67
2021/01/30 04:06:48;;;;;;;;;;;;;;;18.84;64.30;100238.50;4991299;28;1308;-67
2021/01/30 04:09:15;;;;;;;;;;;;;;;18.80;64.35;100244.91;4990978;28;792;-67
2021/01/30 04:11:42;;;;;;;;;;;;;;;18.84;64.30;100251.69;4991043;28;2021;-67
2021/01/30 04:14:09;;;;;;;;;;;;;;;18.84;64.13;100256.97;4973812;28;1331;-67
2021/01/30 04:16:36;;;;;;;;;;;;;;;18.83;64.25;100257.91;4991248;28;1384;-66
2021/01/30 04:19:03;;;;;;;;;;;;;;;18.85;64.18;100263.06;4990932;28;1002;-67
2021/01/30 04:21:29;;;;;;;;;;;;;;;18.85;64.24;100255.16;4991148;28;1225;-67
2021/01/30 04:23:55;;;;;;;;;;;;;;;18.86;64.20;100252.44;4991548;28;1182;-67
2021/01/30 04:26:21;;;;;;;;;;;;;;;18.83;64.31;100251.78;4989829;28;1241;-66
2021/01/30 04:28:48;;;;;;;;;;;;;;;18.78;64.53;100254.75;4989798;28;1318;-67
2021/01/30 04:31:15;;;;;;;;;;;;;;;18.83;64.40;100255.28;4991027;28;1910;-67
2021/01/30 04:33:42;;;;;;;;;;;;;;;18.82;64.41;100250.09;4991417;28;1020;-67
2021/01/30 04:36:08;;;;;;;;;;;;;;;18.79;64.38;100248.50;4991080;28;1206;-66
2021/01/30 04:38:34;;;;;;;;;;;;;;;18.80;64.33;100260.75;4991239;28;1049;-66
2021/01/30 04:41:27;;;;;;;;;;;;;;;18.82;64.39;100264.13;4990857;28;1225;-66
2021/01/30 04:43:59;;;;;;;;;;;;;;;18.81;64.25;100270.38;4988179;28;1171;-68
2021/01/30 04:46:44;;;;;;;;;;;;;;;18.78;64.31;100265.28;4973022;28;1409;-67
2021/01/30 04:49:19;;;;;;;;;;;;;;;18.79;64.54;100274.03;4972957;28;1238;-67
2021/01/30 04:52:00;;;;;;;;;;;;;;;18.81;64.35;100272.16;4990503;28;1926;-67
2021/01/30 04:54:45;;;;;;;;;;;;;;;18.81;64.34;100253.69;4990800;28;1037;-67
2021/01/30 04:57:27;;;;;;;;;;;;;;;18.80;64.34;100257.25;4990609;28;1152;-66
2021/01/30 04:59:53;;;;;;;;;;;;;;;18.80;64.35;100258.13;4973058;28;1387;-66
2021/01/30 05:02:34;;;;;;;;;;;;;;;18.82;64.33;100248.28;4990650;28;997;-66
2021/01/30 05:05:01;;;;;;;;;;;;;;;18.80;64.42;100233.50;4990053;28;1330;-66
2021/01/30 05:08:06;;;;;;;;;;;;;;;18.78;64.43;100223.06;4990245;28;1028;-66
2021/01/30 05:10:35;;;;;;;;;;;;;;;18.79;64.39;100195.72;4929577;29;1935;-66
2021/01/30 05:13:10;;;;;;;;;;;;;;;18.78;64.57;100191.41;4929700;29;1101;-66
2021/01/30 05:15:48;;;;;;;;;;;;;;;18.78;64.62;100187.91;4962515;28;1335;-66
2021/01/30 05:18:15;;;;;;;;;;;;;;;18.76;64.69;100166.03;4972686;28;1393;-66
2021/01/30 05:20:46;;;;;;;;;;;;;;;18.76;64.71;100160.78;4989317;28;1210;-66
2021/01/30 05:23:13;;;;;;;;;;;;;;;18.74;64.58;100152.97;4990247;28;1140;-66
2021/01/30 05:25:40;;;;;;;;;;;;;;;18.74;64.59;100137.13;4990034;28;1237;-66
2021/01/30 05:28:19;;;;;;;;;;;;;;;18.78;64.47;100149.19;4990248;28;1057;-66
2021/01/30 05:30:51;;;;;;;;;;;;;;;18.80;64.36;100159.63;4989657;28;1914;-65
2021/01/30 05:33:27;;;;;;;;;;;;;;;18.78;64.39;100154.47;4972360;28;1473;-66
2021/01/30 05:36:01;;;;;;;;;;;;;;;18.78;64.48;100158.91;4956473;28;1234;-66
2021/01/30 05:38:31;;;;;;;;;;;;;;;18.77;64.36;100147.50;4988730;28;1059;-66
2021/01/30 05:41:04;;;;;;;;;;;;;;;18.76;64.42;100135.22;4972611;28;1241;-66
2021/01/30 05:43:33;;;;;;;;;;;;;;;18.77;64.37;100136.09;4989974;28;1152;-66
2021/01/30 05:46:00;;;;;;;;;;;;;;;18.77;64.32;100120.25;4971921;28;1368;-66
2021/01/30 05:48:35;;;;;;;;;;;;;;;18.71;64.43;100126.78;4990021;28;1128;-66
2021/01/30 05:51:07;;;;;;;;;;;;;;;18.72;64.71;100125.84;4989517;28;1993;-66
2021/01/30 05:53:33;;;;;;;;;;;;;;;18.75;64.53;100133.56;4990035;28;1055;-66
2021/01/30 05:55:59;;;;;;;;;;;;;;;18.72;64.62;100139.03;4989766;28;1230;-66
2021/01/30 05:58:26;;;;;;;;;;;;;;;18.74;64.48;100139.78;4989698;28;1151;-66
2021/01/30 06:01:13;;;;;;;;;;;;;;;18.74;64.50;100121.31;4989374;28;1245;-66
2021/01/30 06:03:58;;;;;;;;;;;;;;;18.71;64.58;100120.66;4979309;28;1538;-66
2021/01/30 06:06:43;;;;;;;;;;;;;;;18.69;64.50;100127.84;4989403;28;1341;-66
2021/01/30 06:09:11;;;;;;;;;;;;;;;18.68;64.66;100119.06;4971697;28;1234;-68
2021/01/30 06:11:48;;;;;;;;;;;;;;;18.72;64.71;100112.66;4977814;28;2008;-66
2021/01/30 06:14:35;;;;;;;;;;;;;;;18.69;64.41;100097.03;4989126;28;1097;-66
2021/01/30 06:17:02;;;;;;;;;;;;;;;18.70;64.62;100085.50;4989277;28;1019;-66
2021/01/30 06:19:34;;;;;;;;;;;;;;;18.72;64.51;100073.09;4987572;28;932;-66
2021/01/30 06:22:32;;;;;;;;;;;;;;;18.73;64.36;100060.72;4969879;28;1135;-66
2021/01/30 06:24:59;;;;;;;;;;;;;;;18.69;64.74;100061.88;4927749;28;1206;-66
2021/01/30 06:27:25;;;;;;;;;;;;;;;18.69;64.59;100062.75;4952727;28;1149;-66
2021/01/30 06:29:58;;;;;;;;;;;;;;;18.66;64.67;100060.31;4952134;28;1283;-66
2021/01/30 06:32:43;;;;;;;;;;;;;;;18.67;64.66;100047.94;4953686;28;937;-66
2021/01/30 06:35:18;;;;;;;;;;;;;;;18.70;64.72;100039.81;4957638;28;1245;-66
2021/01/30 06:37:50;;;;;;;;;;;;;;;18.70;64.52;100053.00;4993167;28;1080;-66
2021/01/30 06:40:36;;;;;;;;;;;;;;;18.71;64.52;100041.50;4993346;28;1277;-66
2021/01/30 06:43:05;;;;;;;;;;;;;;;18.68;64.65;100042.56;4992909;28;1148;-65
2021/01/30 06:45:37;;;;;;;;;;;;;;;18.70;64.36;100056.50;4992858;28;1230;-66
2021/01/30 06:48:08;;;;;;;;;;;;;;;18.65;64.58;100057.75;4993179;28;1077;-66
2021/01/30 06:50:41;;;;;;;;;;;;;;;18.62;64.61;100048.25;4992741;28;1998;-65
2021/01/30 06:53:15;;;;;;;;;;;;;;;18.67;64.46;100043.50;4992851;28;986;-67
2021/01/30 06:55:41;;;;;;;;;;;;;;;18.66;64.58;100033.06;4993002;28;1296;-65
2021/01/30 06:58:10;;;;;;;;;;;;;;;18.62;64.47;100016.59;4993390;28;1053;-67
2021/01/30 07:00:37;;;;;;;;;;;;;;;18.67;64.63;100034.75;4961272;28;1308;-67
2021/01/30 07:03:16;;;;;;;;;;;;;;;18.64;64.64;100019.97;4936588;29;1445;-67
2021/01/30 07:05:59;;;;;;;;;;;;;;;18.69;64.45;100025.81;4953652;28;1336;-68
2021/01/30 07:08:44;;;;;;;;;;;;;;;18.66;64.43;100038.34;4953968;29;1026;-67
2021/01/30 07:11:13;;;;;;;;;;;;;;;18.66;64.61;100044.47;4953629;29;1906;-67
2021/01/30 07:13:58;;;;;;;;;;;;;;;18.64;64.59;100025.25;4936451;29;1214;-67
2021/01/30 07:16:43;;;;;;;;;;;;;;;18.66;64.51;100028.66;4952057;29;1235;-67
2021/01/30 07:19:10;;;;;;;;;;;;;;;18.62;64.48;100024.53;4953599;28;831;-67
2021/01/30 07:21:41;;;;;;;;;;;;;;;18.61;64.50;100017.53;4953290;29;1320;-67
2021/01/30 07:24:07;;;;;;;;;;;;;;;18.63;64.48;100022.72;4936327;29;1297;-66
2021/01/30 07:26:46;;;;;;;;;;;;;;;18.60;64.35;100013.25;4953198;28;1218;-66
2021/01/30 07:29:28;;;;;;;;;;;;;;;18.62;64.49;100011.34;4936023;29;930;-67
2021/01/30 07:32:01;;;;;;;;;;;;;;;18.63;64.43;100009.53;4953160;29;1919;-67
2021/01/30 07:34:41;;;;;;;;;;;;;;;18.67;64.22;100001.31;4953335;29;732;-66
2021/01/30 07:37:15;;;;;;;;;;;;;;;18.54;64.90;100018.94;4935730;29;1246;-69
2021/01/30 07:39:49;;;;;;;;;;;;;;;18.61;64.56;100014.06;4935546;29;1301;-68
2021/01/30 07:42:26;;;;;;;;;;;;;;;18.69;64.46;100001.22;4951536;29;1144;-68
2021/01/30 07:44:55;;;;;;;;;;;;;;;18.67;65.05;100009.22;4951926;28;1273;-67
2021/01/30 07:47:25;;;;;;;;;;;;;;;18.58;65.22;99994.00;4958657;28;1591;-66
2021/01/30 07:50:01;;;;;;;;;;;;;;;18.70;64.90;99993.19;4982577;28;1387;-67
2021/01/30 07:52:31;;;;;;;;;;;;;;;18.72;65.30;100001.84;4973662;28;1914;-66
2021/01/30 07:54:59;;;;;;;;;;;;;;;18.69;65.82;100007.34;4991150;28;1253;-68
2021/01/30 07:57:37;;;;;;;;;;;;;;;18.72;66.14;100003.66;4973772;28;1340;-66
2021/01/30 08:00:17;;;;;;;;;;;;;;;18.74;65.53;99980.63;4979927;28;1365;-67
2021/01/30 08:02:43;;;;;;;;;;;;;;;18.75;65.66;99985.81;4976708;28;1536;-68
2021/01/30 08:05:16;;;;;;;;;;;;;;;18.83;65.40;99978.19;4990852;28;1241;-66
2021/01/30 08:07:56;;;;;;;;;;;;;;;18.80;65.54;99975.78;4987830;28;1534;-66
2021/01/30 08:10:24;;;;;;;;;;;;;;;18.78;65.60;99974.19;4991377;28;1914;-66
2021/01/30 08:12:56;;;;;;;;;;;;;;;18.74;65.96;99978.00;4991674;28;1055;-65
2021/01/30 08:15:35;;;;;;;;;;;;;;;18.74;65.95;99963.00;4991493;28;1391;-66
2021/01/30 08:18:16;;;;;;;;;;;;;;;18.71;66.23;99957.09;4991337;28;909;-68
2021/01/30 08:21:05;;;;;;;;;;;;;;;18.71;66.26;99959.72;4989217;28;1642;-67
2021/01/30 08:23:41;;;;;;;;;;;;;;;18.73;66.31;99966.59;4947110;28;1229;-67
2021/01/30 08:26:17;;;;;;;;;;;;;;;18.74;66.22;99967.44;4922478;28;1640;-67
2021/01/30 08:28:57;;;;;;;;;;;;;;;18.72;66.48;99972.84;4982157;28;1098;-67
2021/01/30 08:31:43;;;;;;;;;;;;;;;18.70;66.46;99973.88;4990558;28;1914;-68
2021/01/30 08:34:24;;;;;;;;;;;;;;;18.71;66.57;99965.00;4990477;28;859;-68
2021/01/30 08:36:50;;;;;;;;;;;;;;;18.71;66.40;99968.50;4990436;28;1502;-69
2021/01/30 08:39:30;;;;;;;;;;;;;;;18.72;66.45;99964.91;4965600;28;1556;-67
2021/01/30 08:42:03;;;;;;;;;;;;;;;18.70;66.54;99966.78;4954882;28;1628;-74
2021/01/30 08:44:44;;;;;;;;;;;;;;;18.74;66.28;99973.56;4949630;28;1038;-77
2021/01/30 08:47:20;;;;;;;;;;;;;;;18.69;65.96;99975.69;4961986;28;1621;-84
2021/01/30 08:49:59;;;;;;;;;;;;;;;18.67;65.92;99964.38;4936861;28;1305;-83
2021/01/30 08:52:39;;;;;;;;;;;;;;;18.79;66.23;99975.88;4954036;28;1915;-72
2021/01/30 08:55:41;;;;;;;;;;;;;;;18.77;65.63;99983.06;4953595;28;1344;-68
2021/01/30 08:58:07;;;;;;;;;;;;;;;18.80;66.28;99975.78;4879488;29;1472;-72
2021/01/30 09:00:49;;;;;;;;;;;;;;;18.85;66.32;99983.34;4947631;28;1422;-79
2021/01/30 09:03:35;;;;;;;;;;;;;;;18.88;65.84;99978.72;4955863;28;1282;-75
2021/01/30 09:06:01;;;;;;;;;;;;;;;18.90;65.51;99987.41;4972814;28;1386;-76
2021/01/30 09:08:38;;;;;;;;;;;;;;;18.96;64.85;99978.19;4986766;28;807;-76
2021/01/30 09:11:36;;;;;;;;;;;;;;;;;;;;;
2021/01/30 09:15:10;;;;;;;;;;;;;;;19.02;64.72;99952.22;4951113;23;1797;-72
2021/01/30 09:19:09;;;;;;;;;;;;;;;;;;;;;
2021/01/30 09:22:38;;;;;;;;;;;;;;;;;;;;;
2021/01/30 09:29:47;;;;;;;;;;;;;;;19.16;64.65;99889.66;4879128;29;1404;-70
2021/01/30 09:32:35;;;;;;;;;;;;;;;19.12;64.55;99880.31;4891321;29;1907;-72
2021/01/30 09:35:07;;;;;;;;;;;;;;;19.21;64.42;99859.34;4890674;29;1388;-70
2021/01/30 09:37:33;;;;;;;;;;;;;;;19.27;64.39;99869.44;4891158;29;1011;-71
2021/01/30 09:40:00;;;;;;;;;;;;;;;19.38;63.95;99869.53;4898984;29;1317;-71
2021/01/30 09:42:28;;;;;;;;;;;;;;;19.44;64.43;99852.44;4894832;29;1407;-76
2021/01/30 09:45:07;;;;;;;;;;;;;;;19.41;64.98;99831.53;4890525;29;1317;-72
2021/01/30 09:47:33;;;;;;;;;;;;;;;19.44;66.50;99850.63;4914127;29;1017;-77
2021/01/30 09:50:01;;;;;;;;;;;;;;;19.43;66.90;99819.03;4948733;28;1391;-69
2021/01/30 09:52:28;;;;;;;;;;;;;;;19.47;65.34;99791.44;4936409;28;1988;-68
2021/01/30 09:55:07;;;;;;;;;;;;;;;19.48;64.82;99779.94;4936331;29;1380;-68
2021/01/30 09:57:34;;;;;;;;;;;;;;;19.43;64.52;99764.41;4931139;29;780;-68
2021/01/30 10:00:09;;;;;;;;;;;;;;;19.39;64.39;99762.09;4933958;28;1264;-69
2021/01/30 10:02:35;;;;;;;;;;;;;;;19.36;66.18;99754.41;4969673;28;1258;-75
2021/01/30 10:05:06;;;;;;;;;;;;;;;19.38;65.21;99763.91;4943645;29;1301;-72
2021/01/30 10:07:33;;;;;;;;;;;;;;;19.47;65.26;99741.28;4953373;28;1017;-67
2021/01/30 10:10:00;;;;;;;;;;;;;;;19.49;64.90;99739.34;4944421;28;1646;-66
2021/01/30 10:12:32;;;;;;;;;;;;;;;19.46;65.10;99761.56;4926218;29;1971;-67
2021/01/30 10:14:59;;;;;;;;;;;;;;;19.45;65.33;99769.59;4949606;28;1297;-69
2021/01/30 10:17:33;;;;;;;;;;;;;;;19.42;65.05;99780.41;4955553;29;941;-69
2021/01/30 10:20:04;;;;;;;;;;;;;;;19.46;64.56;99787.97;4954726;28;1389;-68
2021/01/30 10:22:38;;;;;;;;;;;;;;;19.39;64.86;99799.97;4954636;28;1118;-68
2021/01/30 10:25:17;;;;;;;;;;;;;;;19.36;64.95;99813.31;4944263;29;1274;-70
2021/01/30 10:27:43;;;;;;;;;;;;;;;19.34;65.17;99798.56;4935117;29;1072;-68
2021/01/30 10:30:11;;;;;;;;;;;;;;;19.34;64.98;99793.28;4954204;29;1278;-68
2021/01/30 10:32:52;;;;;;;;;;;;;;;19.32;64.79;99784.63;4956116;28;1987;-67
2021/01/30 10:35:30;;;;;;;;;;;;;;;19.33;64.54;99788.97;4967441;28;1245;-66
2021/01/30 10:38:17;;;;;;;;;;;;;;;19.35;64.49;99794.97;4976077;28;1258;-67
2021/01/30 10:40:45;;;;;;;;;;;;;;;19.36;64.74;99770.25;4975290;28;1291;-67
2021/01/30 10:43:21;;;;;;;;;;;;;;;19.34;64.74;99746.59;4958304;28;792;-67
2021/01/30 10:45:53;;;;;;;;;;;;;;;19.35;64.42;99744.78;4974986;28;1296;-67
2021/01/30 10:48:21;;;;;;;;;;;;;;;19.33;64.46;99738.81;4958211;28;1119;-68
2021/01/30 10:50:49;;;;;;;;;;;;;;;19.33;64.40;99728.25;4948617;29;1915;-72
2021/01/30 10:53:21;;;;;;;;;;;;;;;19.33;64.37;99715.03;4934868;29;1634;-69
2021/01/30 10:55:49;;;;;;;;;;;;;;;19.42;64.38;99717.88;4926903;29;1378;-68
2021/01/30 10:58:16;;;;;;;;;;;;;;;19.49;64.04;99713.78;4947381;29;1225;-73
2021/01/30 11:00:53;;;;;;;;;;;;;;;19.53;64.11;99719.66;4955010;29;1187;-66
2021/01/30 11:03:23;;;;;;;;;;;;;;;19.55;64.13;99708.03;4951397;28;1208;-69
2021/01/30 11:05:50;;;;;;;;;;;;;;;19.54;64.00;99721.38;4954697;29;1300;-72
2021/01/30 11:08:28;;;;;;;;;;;;;;;19.52;64.27;99691.56;4953772;28;1533;-69
2021/01/30 11:11:01;;;;;;;;;;;;;;;19.53;64.14;99682.69;4928516;29;1992;-68
2021/01/30 11:13:40;;;;;;;;;;;;;;;19.54;63.97;99687.03;4950597;28;1042;-67
2021/01/30 11:16:17;;;;;;;;;;;;;;;19.53;64.17;99694.09;4954181;28;1304;-68
2021/01/30 11:18:53;;;;;;;;;;;;;;;19.57;64.38;99700.84;4950613;28;1520;-68
2021/01/30 11:21:28;;;;;;;;;;;;;;;19.58;64.28;99676.09;4901214;29;1340;-71
2021/01/30 11:23:54;;;;;;;;;;;;;;;19.55;64.58;99678.97;4934401;29;832;-65
2021/01/30 11:26:33;;;;;;;;;;;;;;;19.57;64.28;99684.16;4937078;28;1369;-67
2021/01/30 11:29:00;;;;;;;;;;;;;;;19.58;64.17;99676.09;4960928;28;1180;-70
2021/01/30 11:31:26;;;;;;;;;;;;;;;19.58;65.28;99669.97;4953256;28;1910;-69
2021/01/30 11:33:54;;;;;;;;;;;;;;;19.55;64.57;99671.03;4951752;28;1205;-69
2021/01/30 11:36:20;;;;;;;;;;;;;;;19.59;64.63;99671.66;4945044;29;1251;-68
2021/01/30 11:38:55;;;;;;;;;;;;;;;19.63;64.75;99652.81;4925072;29;1290;-65
2021/01/30 11:41:21;;;;;;;;;;;;;;;19.67;65.06;99652.59;4916362;29;1352;-67
2021/01/30 11:43:48;;;;;;;;;;;;;;;19.68;64.09;99662.19;4931959;29;1294;-67
2021/01/30 11:46:15;;;;;;;;;;;;;;;19.73;64.32;99658.22;4949828;28;1249;-70
2021/01/30 11:48:41;;;;;;;;;;;;;;;19.76;64.25;99663.25;4940376;28;1219;-68
2021/01/30 11:51:11;;;;;;;;;;;;;;;19.75;63.74;99656.31;4932446;29;1980;-66
2021/01/30 11:53:37;;;;;;;;;;;;;;;19.77;63.71;99653.53;4939600;28;1129;-69
2021/01/30 11:56:03;;;;;;;;;;;;;;;19.80;63.51;99653.28;4949499;29;1229;-68
2021/01/30 11:58:32;;;;;;;;;;;;;;;19.80;63.42;99648.84;4949199;28;982;-68
2021/01/30 12:00:59;;;;;;;;;;;;;;;19.87;63.13;99639.50;4948520;29;1352;-68
2021/01/30 12:03:28;;;;;;;;;;;;;;;19.84;63.10;99630.97;4937880;28;1148;-66
2021/01/30 12:05:56;;;;;;;;;;;;;;;19.84;63.19;99645.03;4932316;29;1305;-68
2021/01/30 12:08:23;;;;;;;;;;;;;;;19.83;62.83;99643.31;4925645;29;1223;-68
2021/01/30 12:10:50;;;;;;;;;;;;;;;19.82;62.81;99636.34;4931849;29;1971;-68
2021/01/30 12:13:16;;;;;;;;;;;;;;;19.87;62.61;99636.84;4920443;29;1196;-69
2021/01/30 12:15:42;;;;;;;;;;;;;;;19.88;62.64;99633.22;4947800;29;1363;-66
2021/01/30 12:18:10;;;;;;;;;;;;;;;19.89;62.58;99621.69;4947641;28;1552;-69
2021/01/30 12:20:37;;;;;;;;;;;;;;;19.89;62.33;99626.13;4940709;28;1368;-67
2021/01/30 12:23:04;;;;;;;;;;;;;;;19.89;62.32;99612.94;4941064;28;1200;-69
2021/01/30 12:25:30;;;;;;;;;;;;;;;19.88;62.27;99614.72;4948286;29;1484;-68
2021/01/30 12:27:58;;;;;;;;;;;;;;;19.89;62.34;99613.78;4949260;28;1184;-66
2021/01/30 12:30:27;;;;;;;;;;;;;;;19.91;62.10;99600.47;4927558;29;1367;-66
2021/01/30 12:32:55;;;;;;;;;;;;;;;19.91;62.16;99598.63;4940864;28;1914;-67
2021/01/30 12:35:23;;;;;;;;;;;;;;;19.94;62.02;99582.53;4934038;28;1385;-67
2021/01/30 12:37:50;;;;;;;;;;;;;;;20.00;62.87;99575.94;4925702;28;1274;-67
2021/01/30 12:40:17;;;;;;;;;;;;;;;19.95;62.09;99578.94;4931982;29;1255;-67
2021/01/30 12:42:43;;;;;;;;;;;;;;;19.94;62.04;99555.28;4947133;28;1236;-66
2021/01/30 12:45:09;;;;;;;;;;;;;;;19.90;61.93;99551.19;4916442;29;1546;-65
2021/01/30 12:47:36;;;;;;;;;;;;;;;19.86;62.03;99549.75;4949565;28;1200;-67
2021/01/30 12:50:09;;;;;;;;;;;;;;;19.87;61.75;99547.00;4945132;29;1309;-65
2021/01/30 12:52:35;;;;;;;;;;;;;;;19.88;61.83;99551.31;4941761;28;1977;-66
2021/01/30 12:55:02;;;;;;;;;;;;;;;19.89;62.60;99547.69;4920418;29;1388;-66
2021/01/30 12:57:28;;;;;;;;;;;;;;;19.81;62.95;99536.06;4932683;29;1314;-65
2021/01/30 12:59:55;;;;;;;;;;;;;;;19.79;62.44;99538.81;4946130;28;1278;-66
2021/01/30 13:02:22;;;;;;;;;;;;;;;19.73;64.69;99527.94;4939391;29;1377;-66
2021/01/30 13:04:48;;;;;;;;;;;;;;;19.87;63.32;99539.06;4939204;29;1484;-65
2021/01/30 13:07:14;;;;;;;;;;;;;;;19.77;64.60;99551.31;4936254;28;1127;-66
2021/01/30 13:09:40;;;;;;;;;;;;;;;19.71;63.46;99549.19;4946857;28;1372;-67
2021/01/30 13:12:10;;;;;;;;;;;;;;;19.69;63.92;99539.69;4931503;29;1996;-66
2021/01/30 13:14:40;;;;;;;;;;;;;;;19.69;64.32;99542.34;4932634;29;1386;-66
2021/01/30 13:17:07;;;;;;;;;;;;;;;19.70;62.74;99563.34;4933307;29;1160;-67
2021/01/30 13:19:33;;;;;;;;;;;;;;;19.72;62.64;99545.56;4944280;29;1376;-67
2021/01/30 13:22:00;;;;;;;;;;;;;;;19.74;62.44;99563.94;4936627;29;1148;-66
2021/01/30 13:24:26;;;;;;;;;;;;;;;19.78;62.92;99566.22;4942351;28;1410;-69